Time;durP1;ratioP1;P1;durP2;ratioP2;P2;SDS_P1;SDS_P2;PMS_P1;PMS_P2;Temp;Humidity;BMP_temperature;BMP_pressure;BME280_temperature;BME280_humidity;BME280_pressure;Samples;Min_cycle;Max_cycle;Signal;HPM_P1;HPM_P2
2023/01/31 00:00:35;;;;;;;41.23;18.13;;;-1.70;99.90;;;;;;4145436;28;20251;-62
2023/01/31 00:02:37;;;;;;;37.90;17.00;;;-1.60;99.90;;;;;;4146559;28;20341;-64
2023/01/31 00:04:38;;;;;;;42.23;17.33;;;-1.70;99.90;;;;;;4145372;28;20263;-64
2023/01/31 00:06:43;;;;;;;39.13;16.73;;;-1.70;99.90;;;;;;4160706;28;20274;-69
2023/01/31 00:08:46;;;;;;;37.87;16.57;;;-1.70;99.90;;;;;;4161756;28;20819;-63
2023/01/31 00:10:47;;;;;;;36.87;16.13;;;-1.70;99.90;;;;;;4162602;28;20313;-62
2023/01/31 00:12:48;;;;;;;40.37;16.80;;;-1.60;99.90;;;;;;4160840;28;20772;-65
2023/01/31 00:14:49;;;;;;;42.33;16.97;;;-1.60;99.90;;;;;;4152262;28;20279;-72
2023/01/31 00:16:51;;;;;;;38.47;16.13;;;-1.50;99.90;;;;;;4144657;28;20330;-69
2023/01/31 00:18:52;;;;;;;36.03;18.00;;;-1.50;99.90;;;;;;4145275;28;20275;-68
2023/01/31 00:20:53;;;;;;;36.53;16.03;;;-1.40;99.90;;;;;;4145285;28;20345;-68
2023/01/31 00:22:54;;;;;;;40.57;18.50;;;-1.40;99.90;;;;;;4144400;28;20252;-71
2023/01/31 00:24:55;;;;;;;34.13;17.07;;;-1.30;99.90;;;;;;4157495;28;20287;-66
2023/01/31 00:26:56;;;;;;;37.37;16.30;;;-1.40;99.90;;;;;;4161427;28;20332;-63
2023/01/31 00:29:00;;;;;;;36.33;16.90;;;-1.40;99.90;;;;;;4162445;28;20723;-71
2023/01/31 00:31:01;;;;;;;36.03;16.80;;;-1.40;99.90;;;;;;4160221;28;20270;-67
2023/01/31 00:33:02;;;;;;;39.63;16.50;;;-1.30;99.90;;;;;;4144537;28;20675;-71
2023/01/31 00:35:04;;;;;;;42.80;17.33;;;-1.30;99.90;;;;;;4160168;28;20290;-72
2023/01/31 00:37:05;;;;;;;35.67;16.97;;;-1.30;99.90;;;;;;4161470;28;20294;-70
2023/01/31 00:39:07;;;;;;;40.87;18.30;;;-1.20;99.90;;;;;;4160552;28;20320;-64
2023/01/31 00:41:08;;;;;;;37.53;17.30;;;-1.20;99.90;;;;;;4143200;28;20279;-72
2023/01/31 00:43:09;;;;;;;37.37;17.00;;;-1.20;99.90;;;;;;4154443;28;20264;-73
2023/01/31 00:45:11;;;;;;;38.37;17.17;;;-1.10;99.90;;;;;;4145592;28;20267;-70
2023/01/31 00:47:12;;;;;;;37.60;17.70;;;-1.10;99.90;;;;;;4145116;28;20267;-71
2023/01/31 00:49:13;;;;;;;37.20;17.93;;;-1.10;99.90;;;;;;4145678;28;20659;-72
2023/01/31 00:51:15;;;;;;;40.73;18.00;;;-1.00;99.90;;;;;;4144687;28;20252;-63
2023/01/31 00:53:22;;;;;;;42.77;18.73;;;-1.00;99.90;;;;;;4151663;28;20317;-71
2023/01/31 00:55:23;;;;;;;38.23;19.00;;;-1.00;99.90;;;;;;4143215;28;20913;-69
2023/01/31 00:57:24;;;;;;;43.20;18.27;;;-1.00;99.90;;;;;;4160433;28;20279;-71
2023/01/31 00:59:25;;;;;;;43.10;19.73;;;-1.00;99.90;;;;;;4160959;28;20267;-73
2023/01/31 01:01:28;;;;;;;45.07;20.93;;;-1.10;99.90;;;;;;4160646;28;20271;-71
2023/01/31 01:03:29;;;;;;;41.17;18.40;;;-1.10;99.90;;;;;;4143621;28;20326;-66
2023/01/31 01:05:30;;;;;;;42.80;19.57;;;-1.20;99.90;;;;;;4160484;28;20263;-67
2023/01/31 01:07:31;;;;;;;38.13;18.10;;;-1.20;99.90;;;;;;4161443;28;20329;-69
2023/01/31 01:09:32;;;;;;;35.33;16.80;;;-1.30;99.90;;;;;;4160854;28;20756;-72
2023/01/31 01:11:34;;;;;;;38.50;17.23;;;-1.30;99.90;;;;;;4161049;28;20341;-65
2023/01/31 01:13:36;;;;;;;37.33;17.30;;;-1.40;99.90;;;;;;4152416;28;20333;-65
2023/01/31 01:15:38;;;;;;;38.63;17.87;;;-1.30;99.90;;;;;;4161729;28;20287;-73
2023/01/31 01:17:39;;;;;;;43.40;18.70;;;-1.30;99.90;;;;;;4160813;28;20291;-72
2023/01/31 01:19:40;;;;;;;42.33;18.77;;;-1.30;99.90;;;;;;4161699;28;20657;-69
2023/01/31 01:21:43;;;;;;;37.27;16.50;;;-1.30;99.90;;;;;;4150583;28;20271;-72
2023/01/31 01:23:46;;;;;;;44.07;18.97;;;-1.30;99.90;;;;;;4144679;28;20263;-63
2023/01/31 01:25:47;;;;;;;36.07;17.13;;;-1.30;99.90;;;;;;4148525;28;20313;-69
2023/01/31 01:27:48;;;;;;;41.83;18.80;;;-1.30;99.90;;;;;;4156215;28;20252;-63
2023/01/31 01:29:49;;;;;;;41.73;17.87;;;-1.30;99.90;;;;;;4145356;28;20357;-65
2023/01/31 01:31:50;;;;;;;40.57;18.43;;;-1.30;99.90;;;;;;4143391;28;20337;-69
2023/01/31 01:33:51;;;;;;;48.83;21.60;;;-1.30;99.90;;;;;;4153024;28;20848;-65
2023/01/31 01:35:52;;;;;;;50.73;21.80;;;-1.30;99.90;;;;;;4159525;28;20298;-71
2023/01/31 01:37:53;;;;;;;52.47;22.80;;;-1.40;99.90;;;;;;4160635;28;20263;-71
2023/01/31 01:39:55;;;;;;;56.30;23.93;;;-1.40;99.90;;;;;;4160486;28;20259;-69
2023/01/31 01:41:56;;;;;;;46.90;20.83;;;-1.40;99.90;;;;;;4161564;28;20263;-63
2023/01/31 01:43:58;;;;;;;41.70;20.17;;;-1.40;99.90;;;;;;4142292;28;20291;-64
2023/01/31 01:45:59;;;;;;;44.13;19.30;;;-1.50;99.90;;;;;;4161608;28;20270;-72
2023/01/31 01:48:07;;;;;;;40.43;17.50;;;-1.50;99.90;;;;;;4158790;28;20333;-69
2023/01/31 01:50:14;;;;;;;39.87;17.40;;;-1.50;99.90;;;;;;4141832;28;20746;-67
2023/01/31 01:52:16;;;;;;;36.93;16.63;;;-1.60;99.90;;;;;;4162426;28;20262;-62
2023/01/31 01:54:21;;;;;;;41.70;16.73;;;-1.60;99.90;;;;;;4164267;28;20290;-62
2023/01/31 01:56:31;;;;;;;37.20;17.40;;;-1.70;99.90;;;;;;4164063;28;20836;-62
2023/01/31 01:58:38;;;;;;;40.07;16.27;;;-1.60;99.90;;;;;;4164010;28;20329;-64
2023/01/31 02:00:39;;;;;;;41.10;16.73;;;-1.60;99.90;;;;;;4164276;28;20321;-62
2023/01/31 02:02:43;;;;;;;43.83;16.83;;;-1.60;99.90;;;;;;4151912;28;20779;-62
2023/01/31 02:04:48;;;;;;;37.60;16.47;;;-1.60;99.90;;;;;;4148012;28;20264;-62
2023/01/31 02:06:51;;;;;;;33.77;16.67;;;-1.60;99.90;;;;;;4146699;28;20319;-63
2023/01/31 02:08:53;;;;;;;36.93;16.57;;;-1.60;99.90;;;;;;4148122;28;20659;-63
2023/01/31 02:11:02;;;;;;;35.17;16.47;;;-1.60;99.90;;;;;;4146338;28;20675;-63
2023/01/31 02:13:03;;;;;;;39.37;16.33;;;-1.60;99.90;;;;;;4148309;28;20322;-64
2023/01/31 02:15:06;;;;;;;39.97;17.50;;;-1.60;99.90;;;;;;4157979;28;20325;-67
2023/01/31 02:17:12;;;;;;;37.47;16.33;;;-1.60;99.90;;;;;;4164185;28;20295;-63
2023/01/31 02:19:41;;;;;;;36.63;16.93;;;-1.60;99.90;;;;;;4163827;28;20333;-62
2023/01/31 02:22:04;;;;;;;39.57;16.20;;;-1.70;99.90;;;;;;4162967;28;20291;-65
2023/01/31 02:24:13;;;;;;;38.87;17.33;;;-1.60;99.90;;;;;;4157707;28;20275;-63
2023/01/31 02:26:32;;;;;;;37.97;18.17;;;-1.60;99.90;;;;;;4163338;28;20821;-62
2023/01/31 02:29:05;;;;;;;38.00;17.17;;;-1.60;99.90;;;;;;4163515;28;20329;-64
2023/01/31 02:31:20;;;;;;;35.97;17.17;;;-1.50;99.90;;;;;;4145164;28;20263;-63
2023/01/31 02:33:39;;;;;;;35.23;17.23;;;-1.50;99.90;;;;;;4163863;28;20297;-61
2023/01/31 02:36:11;;;;;;;40.40;18.10;;;-1.50;99.90;;;;;;4162999;28;20298;-62
2023/01/31 02:38:30;;;;;;;42.10;18.43;;;-1.50;99.90;;;;;;4163844;28;20697;-62
2023/01/31 02:40:37;;;;;;;40.20;18.17;;;-1.50;99.90;;;;;;4162966;28;20321;-66
2023/01/31 02:42:53;;;;;;;45.47;19.33;;;-1.40;99.90;;;;;;4164082;28;20313;-63
2023/01/31 02:45:28;;;;;;;39.10;19.40;;;-1.40;99.90;;;;;;4162924;28;20262;-61
2023/01/31 02:47:42;;;;;;;39.63;18.70;;;-1.40;99.90;;;;;;4113248;28;20265;-63
2023/01/31 02:49:48;;;;;;;45.97;19.87;;;-1.40;99.90;;;;;;4163336;28;20271;-62
2023/01/31 02:52:15;;;;;;;42.07;18.27;;;-1.40;99.90;;;;;;4163969;28;20309;-62
2023/01/31 02:54:17;;;;;;;44.17;18.67;;;-1.40;99.90;;;;;;4162255;28;20647;-62
2023/01/31 02:56:24;;;;;;;37.23;18.17;;;-1.40;99.90;;;;;;4147385;28;21071;-62
2023/01/31 02:58:29;;;;;;;41.87;18.47;;;-1.30;99.90;;;;;;4145592;28;20743;-64
2023/01/31 03:00:37;;;;;;;40.47;18.50;;;-1.30;99.90;;;;;;4147324;28;20325;-64
2023/01/31 03:02:38;;;;;;;39.90;18.73;;;-1.20;99.90;;;;;;4145383;28;20264;-63
2023/01/31 03:04:41;;;;;;;41.23;19.77;;;-1.20;99.90;;;;;;4146055;28;20271;-63
2023/01/31 03:06:53;;;;;;;42.63;19.33;;;-1.10;99.90;;;;;;4146270;28;20302;-63
2023/01/31 03:09:47;;;;;;;43.00;18.23;;;-1.10;99.90;;;;;;4161467;28;20340;-64
2023/01/31 03:12:07;;;;;;;38.67;17.33;;;-1.10;99.90;;;;;;4112085;28;20273;-65
2023/01/31 03:14:41;;;;;;;38.40;17.83;;;-1.10;99.90;;;;;;4112464;28;20304;-65
2023/01/31 03:19:19;;;;;;;;;;;-1.10;99.90;;;;;;4163082;28;20357;-63
2023/01/31 03:21:28;;;;;;;42.67;18.67;;;-1.10;99.90;;;;;;4163786;28;20262;-63
2023/01/31 03:23:34;;;;;;;40.40;18.23;;;-1.10;99.90;;;;;;4162369;28;20290;-65
2023/01/31 03:25:37;;;;;;;40.90;18.57;;;-1.00;99.90;;;;;;4163584;28;20719;-62
2023/01/31 03:27:42;;;;;;;40.80;19.27;;;-0.90;99.90;;;;;;4162315;28;20270;-62
2023/01/31 03:29:44;;;;;;;42.43;18.50;;;-1.00;99.90;;;;;;4162901;28;20282;-64
2023/01/31 03:32:26;;;;;;;43.83;19.77;;;-0.90;99.90;;;;;;4161554;28;20829;-63
2023/01/31 03:34:27;;;;;;;40.30;19.43;;;-0.90;99.90;;;;;;4162840;28;20396;-70
2023/01/31 03:36:48;;;;;;;46.73;19.80;;;-0.90;99.90;;;;;;4162117;28;20290;-71
2023/01/31 03:38:55;;;;;;;46.00;19.60;;;-0.90;99.90;;;;;;4130036;28;20288;-72
2023/01/31 03:41:05;;;;;;;42.07;19.63;;;-0.90;99.90;;;;;;4111832;28;20689;-65
2023/01/31 03:43:19;;;;;;;44.63;20.27;;;-0.90;99.90;;;;;;4130569;28;20330;-70
2023/01/31 03:45:56;;;;;;;52.03;21.97;;;-0.90;99.90;;;;;;4111519;28;20276;-72
2023/01/31 03:47:59;;;;;;;41.30;20.40;;;-0.90;99.90;;;;;;4105468;28;20260;-64
2023/01/31 03:50:05;;;;;;;46.30;20.23;;;-0.80;99.90;;;;;;4138317;28;20270;-72
2023/01/31 03:52:08;;;;;;;40.33;20.10;;;-0.90;99.90;;;;;;4146823;28;20313;-71
2023/01/31 03:54:17;;;;;;;44.03;19.93;;;-0.80;99.90;;;;;;4127412;28;20285;-63
2023/01/31 03:56:26;;;;;;;47.97;21.37;;;-0.90;99.90;;;;;;4146526;28;20283;-67
2023/01/31 03:58:37;;;;;;;44.27;19.57;;;-0.90;99.90;;;;;;4145228;28;20287;-62
2023/01/31 04:00:42;;;;;;;35.80;17.53;;;-1.00;99.90;;;;;;4146551;28;20272;-63
2023/01/31 04:02:43;;;;;;;34.03;17.83;;;-1.00;99.90;;;;;;4145229;28;20322;-65
2023/01/31 04:04:53;;;;;;;38.90;18.07;;;-1.00;99.90;;;;;;4146579;28;20727;-63
2023/01/31 04:06:54;;;;;;;34.28;16.60;;;-1.00;99.90;;;;;;4145245;28;20275;-63
2023/01/31 04:08:55;;;;;;;35.10;16.30;;;-0.90;99.90;;;;;;4146416;28;20037;-63
2023/01/31 04:10:58;;;;;;;34.67;16.40;;;-0.90;99.90;;;;;;4145248;28;20382;-63
2023/01/31 04:13:00;;;;;;;35.20;17.40;;;-0.90;99.90;;;;;;4159709;28;20283;-69
2023/01/31 04:15:02;;;;;;;33.90;15.50;;;-0.80;99.90;;;;;;4161631;28;20317;-63
2023/01/31 04:17:03;;;;;;;30.40;14.13;;;-0.80;99.90;;;;;;4161659;28;20295;-62
2023/01/31 04:19:04;;;;;;;33.13;16.63;;;-0.90;99.90;;;;;;4162697;28;20592;-62
2023/01/31 04:21:06;;;;;;;28.53;14.97;;;-0.80;99.90;;;;;;4160328;28;20271;-63
2023/01/31 04:23:07;;;;;;;30.87;15.57;;;-0.80;99.90;;;;;;4156266;28;20318;-63
2023/01/31 04:25:08;;;;;;;25.93;13.13;;;-0.80;99.90;;;;;;4144981;28;20349;-62
2023/01/31 04:27:09;;;;;;;26.63;12.83;;;-0.80;99.90;;;;;;4145246;28;20275;-62
2023/01/31 04:29:11;;;;;;;25.13;12.63;;;-0.80;99.90;;;;;;4144925;28;20682;-63
2023/01/31 04:31:12;;;;;;;26.53;12.73;;;-0.80;99.90;;;;;;4145216;28;20283;-63
2023/01/31 04:33:13;;;;;;;26.50;13.63;;;-0.80;99.90;;;;;;4144887;28;20672;-63
2023/01/31 04:35:14;;;;;;;26.03;13.17;;;-0.90;99.90;;;;;;4146018;28;20740;-64
2023/01/31 04:37:16;;;;;;;29.90;12.43;;;-0.80;99.90;;;;;;4143905;28;20291;-62
2023/01/31 04:39:17;;;;;;;24.70;12.87;;;-0.80;99.90;;;;;;4145197;28;20276;-63
2023/01/31 04:41:18;;;;;;;27.97;13.13;;;-0.80;99.90;;;;;;4144795;28;20342;-63
2023/01/31 04:43:19;;;;;;;32.43;15.57;;;-0.80;99.90;;;;;;4149139;28;20287;-63
2023/01/31 04:45:20;;;;;;;29.13;13.67;;;-0.80;99.90;;;;;;4153640;28;20255;-72
2023/01/31 04:47:21;;;;;;;30.67;13.77;;;-0.80;99.90;;;;;;4144840;28;20275;-63
2023/01/31 04:49:23;;;;;;;26.80;13.50;;;-0.80;99.90;;;;;;4145392;28;20252;-62
2023/01/31 04:51:24;;;;;;;27.37;14.00;;;-0.80;99.90;;;;;;4145031;28;20670;-63
2023/01/31 04:53:25;;;;;;;28.40;12.93;;;-0.80;99.90;;;;;;4148193;28;20666;-63
2023/01/31 04:55:26;;;;;;;30.37;13.07;;;-0.80;99.90;;;;;;4159912;28;20711;-67
2023/01/31 04:57:27;;;;;;;31.47;13.87;;;-0.80;99.90;;;;;;4161555;28;20282;-65
2023/01/31 04:59:29;;;;;;;27.10;13.13;;;-0.80;99.90;;;;;;4156289;28;20275;-62
2023/01/31 05:01:30;;;;;;;28.63;13.40;;;-0.80;99.90;;;;;;4145869;28;20275;-63
2023/01/31 05:03:31;;;;;;;25.20;12.90;;;-0.80;99.90;;;;;;4132624;28;20287;-66
2023/01/31 05:05:32;;;;;;;30.43;14.07;;;-0.80;99.90;;;;;;4158628;28;20271;-64
2023/01/31 05:07:34;;;;;;;26.37;13.27;;;-0.80;99.90;;;;;;4136183;28;21065;-67
2023/01/31 05:09:35;;;;;;;28.17;13.63;;;-0.90;99.90;;;;;;4148407;28;20317;-69
2023/01/31 05:11:36;;;;;;;28.40;14.53;;;-0.90;99.90;;;;;;4138334;28;20659;-62
2023/01/31 05:13:37;;;;;;;37.00;15.73;;;-0.90;99.90;;;;;;4160445;28;20324;-63
2023/01/31 05:15:39;;;;;;;27.67;13.40;;;-0.90;99.90;;;;;;4150506;28;20841;-63
2023/01/31 05:17:40;;;;;;;32.90;14.13;;;-1.00;99.90;;;;;;4159096;28;20650;-64
2023/01/31 05:19:42;;;;;;;29.20;14.10;;;-1.00;99.90;;;;;;4161365;28;20331;-63
2023/01/31 05:21:58;;;;;;;31.93;15.57;;;-1.00;99.90;;;;;;4158025;28;20829;-62
2023/01/31 05:24:00;;;;;;;29.93;16.47;;;-0.90;99.90;;;;;;4144172;28;20338;-65
2023/01/31 05:26:02;;;;;;;32.00;15.80;;;-1.00;99.90;;;;;;4145214;28;20299;-63
2023/01/31 05:28:03;;;;;;;29.77;14.03;;;-1.00;99.90;;;;;;4161103;28;20796;-63
2023/01/31 05:30:05;;;;;;;35.93;16.37;;;-1.00;99.90;;;;;;4148500;28;20798;-64
2023/01/31 05:32:07;;;;;;;27.93;14.67;;;-1.00;99.90;;;;;;4144622;28;21100;-70
2023/01/31 05:34:09;;;;;;;30.63;15.87;;;-1.00;99.90;;;;;;4148332;28;20836;-70
2023/01/31 05:36:10;;;;;;;29.73;14.37;;;-1.00;99.90;;;;;;4161468;28;20313;-63
2023/01/31 05:38:11;;;;;;;28.00;14.37;;;-1.00;99.90;;;;;;4160405;28;20650;-61
2023/01/31 05:40:16;;;;;;;31.03;14.40;;;-1.00;99.90;;;;;;4153705;28;20366;-63
2023/01/31 05:42:18;;;;;;;37.53;17.43;;;-1.00;99.90;;;;;;4143433;28;20279;-65
2023/01/31 05:44:19;;;;;;;40.73;18.90;;;-1.00;99.90;;;;;;4141888;28;20252;-65
2023/01/31 05:46:21;;;;;;;36.40;17.57;;;-1.00;99.90;;;;;;4143564;28;20337;-68
2023/01/31 05:48:22;;;;;;;34.47;14.50;;;-1.00;99.90;;;;;;4144532;28;20276;-66
2023/01/31 05:50:23;;;;;;;25.83;13.70;;;-1.00;99.90;;;;;;4144120;28;20759;-65
2023/01/31 05:52:25;;;;;;;24.33;11.30;;;-1.00;99.90;;;;;;4143704;28;20306;-63
2023/01/31 05:54:26;;;;;;;18.47;10.30;;;-1.00;99.90;;;;;;4142349;28;20279;-66
2023/01/31 05:56:27;;;;;;;16.60;9.57;;;-1.00;99.90;;;;;;4143380;28;20341;-66
2023/01/31 05:58:28;;;;;;;17.97;9.57;;;-0.90;99.90;;;;;;4148996;28;20318;-69
2023/01/31 06:00:29;;;;;;;18.17;9.23;;;-0.90;99.90;;;;;;4160056;28;20661;-62
2023/01/31 06:02:31;;;;;;;18.93;9.27;;;-0.90;99.90;;;;;;4149293;28;20267;-65
2023/01/31 06:04:32;;;;;;;19.10;8.60;;;-0.90;99.90;;;;;;4141806;28;20271;-74
2023/01/31 06:06:33;;;;;;;27.50;14.40;;;-0.90;99.90;;;;;;4144015;28;20275;-65
2023/01/31 06:08:34;;;;;;;39.20;20.00;;;-0.90;99.90;;;;;;4142487;28;20263;-72
2023/01/31 06:10:36;;;;;;;41.23;21.60;;;-0.90;99.90;;;;;;4144398;28;20256;-65
2023/01/31 06:12:37;;;;;;;33.10;16.57;;;-0.90;99.90;;;;;;4143335;28;20252;-72
2023/01/31 06:14:39;;;;;;;28.53;13.33;;;-0.80;99.90;;;;;;4144571;28;20267;-64
2023/01/31 06:16:40;;;;;;;26.70;12.73;;;-0.80;99.90;;;;;;4142977;28;20350;-64
2023/01/31 06:18:41;;;;;;;24.33;12.90;;;-0.80;99.90;;;;;;4145005;28;20264;-67
2023/01/31 06:20:43;;;;;;;22.97;11.73;;;-0.70;99.90;;;;;;4143673;28;20263;-65
2023/01/31 06:22:44;;;;;;;24.03;14.20;;;-0.70;99.90;;;;;;4144295;28;20809;-63
2023/01/31 06:24:45;;;;;;;26.67;13.63;;;-0.60;99.90;;;;;;4143490;28;20268;-63
2023/01/31 06:26:46;;;;;;;25.27;15.13;;;-0.60;99.90;;;;;;4143794;28;20275;-65
2023/01/31 06:28:47;;;;;;;24.80;13.37;;;-0.50;99.90;;;;;;4143929;28;20267;-63
2023/01/31 06:30:49;;;;;;;25.93;12.50;;;-0.50;99.90;;;;;;4143376;28;20326;-64
2023/01/31 06:32:50;;;;;;;26.57;12.40;;;-0.50;99.90;;;;;;4144007;28;20283;-63
2023/01/31 06:34:51;;;;;;;22.77;11.53;;;-0.40;99.90;;;;;;4143128;28;20276;-66
2023/01/31 06:36:52;;;;;;;24.77;12.63;;;-0.30;99.90;;;;;;4144740;28;20295;-64
2023/01/31 06:38:53;;;;;;;20.30;10.97;;;-0.30;99.90;;;;;;4144428;28;20267;-63
2023/01/31 06:40:55;;;;;;;21.17;11.20;;;-0.30;99.90;;;;;;4147756;28;20418;-64
2023/01/31 06:42:56;;;;;;;21.00;10.87;;;-0.20;99.90;;;;;;4146508;28;20259;-63
2023/01/31 06:44:58;;;;;;;21.93;11.47;;;-0.10;99.90;;;;;;4147636;28;20698;-63
2023/01/31 06:47:00;;;;;;;22.33;12.80;;;-0.10;99.90;;;;;;4145917;28;20314;-63
2023/01/31 06:49:01;;;;;;;34.97;16.93;;;-0.10;99.90;;;;;;4147655;28;20318;-64
2023/01/31 06:51:03;;;;;;;65.07;32.50;;;0.00;99.90;;;;;;4145972;28;20334;-63
2023/01/31 06:53:04;;;;;;;103.67;48.00;;;0.00;99.90;;;;;;4146844;28;20732;-63
2023/01/31 06:55:06;;;;;;;64.00;34.27;;;0.10;99.90;;;;;;4146326;28;20264;-63
2023/01/31 06:57:07;;;;;;;50.23;28.80;;;0.20;99.90;;;;;;4146444;28;20291;-63
2023/01/31 06:59:08;;;;;;;46.97;27.30;;;0.10;99.90;;;;;;4146612;28;20754;-64
2023/01/31 07:01:11;;;;;;;44.77;26.37;;;0.10;99.90;;;;;;4146117;28;20655;-62
2023/01/31 07:03:13;;;;;;;34.17;20.27;;;0.10;99.90;;;;;;4146433;28;20361;-63
2023/01/31 07:05:14;;;;;;;30.30;18.30;;;0.10;99.90;;;;;;4146021;28;20279;-63
2023/01/31 07:07:15;;;;;;;28.80;15.80;;;0.20;99.90;;;;;;4147083;28;20684;-63
2023/01/31 07:09:16;;;;;;;26.80;14.50;;;0.20;99.90;;;;;;4145872;28;20286;-64
2023/01/31 07:11:17;;;;;;;25.23;14.17;;;0.30;99.90;;;;;;4147282;28;20612;-63
2023/01/31 07:13:19;;;;;;;23.60;13.87;;;0.30;99.90;;;;;;4145885;28;20267;-63
2023/01/31 07:15:20;;;;;;;25.10;14.93;;;0.30;99.90;;;;;;4147081;28;20314;-63
2023/01/31 07:17:21;;;;;;;33.03;13.77;;;0.40;99.90;;;;;;4145406;28;20659;-63
2023/01/31 07:19:22;;;;;;;26.00;13.47;;;0.40;99.90;;;;;;4147391;28;20337;-65
2023/01/31 07:21:25;;;;;;;23.87;13.03;;;0.40;99.90;;;;;;4145248;28;21422;-64
2023/01/31 07:23:26;;;;;;;49.23;26.73;;;0.40;99.90;;;;;;4146864;28;20310;-64
2023/01/31 07:25:29;;;;;;;27.73;15.10;;;0.40;99.90;;;;;;4145653;28;20256;-65
2023/01/31 07:27:30;;;;;;;30.00;15.20;;;0.40;99.90;;;;;;4146657;28;20325;-68
2023/01/31 07:29:31;;;;;;;26.43;14.00;;;0.50;99.90;;;;;;4146103;28;20325;-64
2023/01/31 07:31:32;;;;;;;33.07;17.77;;;0.50;99.90;;;;;;4145804;28;20678;-67
2023/01/31 07:33:33;;;;;;;24.83;13.20;;;0.60;99.90;;;;;;4145813;28;20318;-64
2023/01/31 07:35:34;;;;;;;21.43;11.00;;;0.50;99.90;;;;;;4145576;28;20268;-64
2023/01/31 07:37:38;;;;;;;24.83;11.50;;;0.50;99.90;;;;;;4146322;28;20299;-63
2023/01/31 07:39:39;;;;;;;29.33;14.37;;;0.50;99.90;;;;;;4145399;28;20263;-61
2023/01/31 07:41:40;;;;;;;33.50;20.27;;;0.40;99.90;;;;;;4146488;28;20675;-64
2023/01/31 07:43:41;;;;;;;30.70;15.67;;;0.40;99.90;;;;;;4145131;28;20279;-67
2023/01/31 07:45:42;;;;;;;29.97;16.60;;;0.30;99.90;;;;;;4146541;28;20318;-64
2023/01/31 07:47:43;;;;;;;31.00;15.97;;;0.30;99.90;;;;;;4145210;28;20790;-70
2023/01/31 07:49:45;;;;;;;32.07;18.40;;;0.20;99.90;;;;;;4144603;28;20276;-63
2023/01/31 07:51:46;;;;;;;35.63;16.50;;;0.20;99.90;;;;;;4145174;28;20302;-64
2023/01/31 07:53:47;;;;;;;29.73;15.10;;;0.20;99.90;;;;;;4146413;28;20798;-66
2023/01/31 07:55:48;;;;;;;31.50;16.13;;;0.30;99.90;;;;;;4145408;28;20271;-64
2023/01/31 07:57:49;;;;;;;25.57;14.37;;;0.30;99.90;;;;;;4145580;28;20335;-64
2023/01/31 07:59:50;;;;;;;23.70;12.97;;;0.30;99.90;;;;;;4145315;28;20413;-64
2023/01/31 08:04:13;;;;;;;28.03;12.47;;;0.20;99.90;;;;;;4145118;28;20377;-63
2023/01/31 08:06:15;;;;;;;22.03;11.60;;;0.20;99.90;;;;;;4144266;28;20279;-65
2023/01/31 08:08:16;;;;;;;23.50;13.30;;;0.30;99.90;;;;;;4145598;28;20375;-61
2023/01/31 08:10:17;;;;;;;25.33;12.67;;;0.30;99.90;;;;;;4145351;28;20321;-64
2023/01/31 08:12:19;;;;;;;31.07;15.83;;;0.40;99.90;;;;;;4145738;28;20321;-63
2023/01/31 08:14:24;;;;;;;50.07;24.83;;;0.40;99.90;;;;;;4144861;28;20271;-64
2023/01/31 08:16:25;;;;;;;58.47;30.90;;;0.40;99.90;;;;;;4145767;28;20647;-63
2023/01/31 08:18:26;;;;;;;45.43;23.80;;;0.30;99.90;;;;;;4144710;28;20353;-63
2023/01/31 08:20:27;;;;;;;47.77;23.90;;;0.20;99.90;;;;;;4146406;28;20870;-69
2023/01/31 08:22:28;;;;;;;48.77;25.57;;;0.10;99.90;;;;;;4144940;28;20743;-63
2023/01/31 08:24:31;;;;;;;43.40;22.33;;;0.10;99.90;;;;;;4145844;28;20330;-63
2023/01/31 08:26:32;;;;;;;43.33;22.27;;;0.00;99.90;;;;;;4144688;28;20272;-63
2023/01/31 08:28:33;;;;;;;43.00;22.00;;;0.00;99.90;;;;;;4144194;28;20326;-69
2023/01/31 08:30:38;;;;;;;50.23;23.30;;;0.00;99.90;;;;;;4144465;28;20318;-62
2023/01/31 08:32:40;;;;;;;53.60;23.17;;;0.00;99.90;;;;;;4145493;28;20872;-65
2023/01/31 08:34:42;;;;;;;46.43;22.80;;;0.00;99.90;;;;;;4144604;28;20317;-62
2023/01/31 08:36:43;;;;;;;49.97;24.70;;;0.10;99.90;;;;;;4145125;28;20279;-67
2023/01/31 08:38:45;;;;;;;50.63;24.00;;;0.20;99.90;;;;;;4144737;28;20271;-62
2023/01/31 08:40:46;;;;;;;45.50;22.17;;;0.30;99.90;;;;;;4144346;28;20684;-63
2023/01/31 08:42:55;;;;;;;47.67;23.67;;;0.50;99.90;;;;;;4145108;28;20357;-64
2023/01/31 08:44:56;;;;;;;45.30;21.87;;;0.70;99.90;;;;;;4144880;28;20342;-64
2023/01/31 08:47:00;;;;;;;46.63;23.53;;;0.90;99.90;;;;;;4145140;28;20287;-64
2023/01/31 08:49:04;;;;;;;48.00;23.50;;;1.20;99.90;;;;;;4144338;28;20322;-71
2023/01/31 08:51:07;;;;;;;41.77;21.17;;;1.40;99.90;;;;;;4145654;28;20267;-64
2023/01/31 08:53:08;;;;;;;42.43;22.00;;;1.60;99.90;;;;;;4144255;28;20275;-63
2023/01/31 08:55:12;;;;;;;49.37;22.30;;;1.80;99.90;;;;;;4145383;28;20345;-65
2023/01/31 08:57:13;;;;;;;39.27;22.00;;;1.90;99.90;;;;;;4143911;28;20679;-63
2023/01/31 08:59:14;;;;;;;43.03;21.87;;;2.10;99.90;;;;;;4145232;28;20345;-63
2023/01/31 09:01:17;;;;;;;39.60;20.37;;;2.20;99.90;;;;;;4143268;28;20267;-62
2023/01/31 09:03:19;;;;;;;42.07;20.20;;;2.20;99.90;;;;;;4145238;28;20644;-61
2023/01/31 09:05:20;;;;;;;40.77;21.30;;;2.30;99.90;;;;;;4144365;28;21016;-63
2023/01/31 09:07:22;;;;;;;44.90;21.93;;;2.30;99.90;;;;;;4145234;28;20662;-62
2023/01/31 09:09:24;;;;;;;53.37;27.97;;;2.30;99.90;;;;;;4144037;28;20260;-63
2023/01/31 09:11:28;;;;;;;149.37;62.63;;;2.40;99.90;;;;;;4145182;28;21040;-71
2023/01/31 09:13:30;;;;;;;56.30;28.80;;;2.50;99.90;;;;;;4144189;28;20259;-63
2023/01/31 09:15:31;;;;;;;51.60;26.20;;;2.60;99.90;;;;;;4144623;28;20329;-62
2023/01/31 09:17:32;;;;;;;62.30;28.23;;;2.50;99.90;;;;;;4141683;28;20632;-63
2023/01/31 09:19:33;;;;;;;68.73;31.30;;;2.40;99.90;;;;;;4144490;28;20353;-63
2023/01/31 09:21:35;;;;;;;57.37;29.37;;;2.40;99.90;;;;;;4145153;28;20263;-64
2023/01/31 09:23:36;;;;;;;62.83;29.73;;;2.60;99.90;;;;;;4142281;28;20364;-61
2023/01/31 09:25:37;;;;;;;52.07;26.17;;;2.70;99.90;;;;;;4145059;28;20833;-62
2023/01/31 09:27:38;;;;;;;50.30;28.53;;;2.80;99.90;;;;;;4143511;28;20291;-62
2023/01/31 09:29:40;;;;;;;55.27;26.03;;;2.90;99.90;;;;;;4145070;28;20329;-65
2023/01/31 09:31:41;;;;;;;47.27;24.83;;;3.00;99.90;;;;;;4143815;28;20421;-63
2023/01/31 09:33:42;;;;;;;48.67;26.00;;;3.00;99.90;;;;;;4144597;28;20329;-63
2023/01/31 09:35:57;;;;;;;41.60;23.20;;;3.10;99.90;;;;;;4143599;28;20326;-63
2023/01/31 09:37:58;;;;;;;37.27;18.87;;;3.10;99.90;;;;;;4144701;28;20279;-64
2023/01/31 09:39:59;;;;;;;37.80;20.90;;;3.00;99.90;;;;;;4143807;28;20727;-63
2023/01/31 09:42:09;;;;;;;40.97;20.77;;;3.10;99.90;;;;;;4144625;28;20264;-63
2023/01/31 09:44:35;;;;;;;31.73;16.48;;;3.20;99.90;;;;;;4143932;28;20616;-68
2023/01/31 09:46:42;;;;;;;27.40;14.77;;;3.30;99.90;;;;;;4144374;28;20042;-67
2023/01/31 09:48:49;;;;;;;25.87;14.93;;;3.40;99.90;;;;;;4143615;28;20325;-62
2023/01/31 09:50:56;;;;;;;20.57;12.43;;;3.30;99.90;;;;;;4145175;28;20276;-63
2023/01/31 09:52:57;;;;;;;21.53;13.10;;;3.40;99.90;;;;;;4143583;28;20283;-67
2023/01/31 09:54:59;;;;;;;20.50;9.63;;;3.30;99.90;;;;;;4144913;28;20346;-63
2023/01/31 09:57:18;;;;;;;12.53;6.80;;;3.40;99.90;;;;;;4143357;28;20818;-63
2023/01/31 09:59:33;;;;;;;14.77;7.80;;;3.40;99.90;;;;;;4143220;28;20349;-63
2023/01/31 10:01:56;;;;;;;14.63;8.13;;;3.50;99.90;;;;;;4143438;28;20337;-64
2023/01/31 10:04:16;;;;;;;9.30;5.93;;;3.40;99.90;;;;;;4143009;28;20279;-70
2023/01/31 10:06:31;;;;;;;8.70;5.00;;;3.30;99.90;;;;;;4143636;28;20309;-63
2023/01/31 10:08:41;;;;;;;8.20;5.00;;;3.30;99.90;;;;;;4144316;28;20268;-64
2023/01/31 10:10:49;;;;;;;9.88;5.43;;;3.20;99.90;;;;;;4143798;28;20271;-62
2023/01/31 10:12:56;;;;;;;7.63;4.93;;;3.30;99.90;;;;;;4145708;28;20432;-63
2023/01/31 10:15:43;;;;;;;7.97;4.33;;;3.20;99.90;;;;;;4146707;28;20355;-63
2023/01/31 10:17:56;;;;;;;9.53;5.43;;;3.10;99.90;;;;;;4138064;28;20783;-68
2023/01/31 10:20:03;;;;;;;9.63;4.67;;;3.10;99.90;;;;;;4146875;28;20334;-64
2023/01/31 10:22:09;;;;;;;7.53;4.87;;;3.10;99.90;;;;;;4146092;28;20272;-63
2023/01/31 10:24:34;;;;;;;9.13;5.77;;;3.10;99.90;;;;;;4146620;28;21101;-64
2023/01/31 10:26:39;;;;;;;10.77;4.87;;;3.20;99.90;;;;;;4147273;28;20322;-62
2023/01/31 10:28:52;;;;;;;12.30;7.10;;;3.30;99.90;;;;;;4146861;28;20313;-64
2023/01/31 10:31:02;;;;;;;23.80;8.90;;;3.40;99.90;;;;;;4147187;28;20252;-63
2023/01/31 10:33:18;;;;;;;17.27;8.40;;;3.40;99.90;;;;;;4146686;28;20286;-63
2023/01/31 10:35:24;;;;;;;15.40;8.60;;;3.50;99.90;;;;;;4146584;28;20108;-63
2023/01/31 10:37:49;;;;;;;13.80;7.70;;;3.60;99.90;;;;;;4146715;28;20793;-63
2023/01/31 10:39:59;;;;;;;13.53;7.37;;;3.70;99.90;;;;;;4146363;28;20350;-64
2023/01/31 10:42:27;;;;;;;10.15;6.63;;;3.70;99.90;;;;;;4146985;28;20329;-68